createdAt,value
2023-02-27T00:00:22.651Z,15.67
2023-02-27T00:02:51.450Z,14.53
2023-02-27T00:05:19.459Z,16.67
2023-02-27T00:07:45.969Z,15.40
2023-02-27T00:10:13.760Z,11.70
2023-02-27T00:12:40.199Z,17.30
2023-02-27T00:15:13.109Z,15.93
2023-02-27T00:17:40.036Z,15.00
2023-02-27T00:20:11.075Z,14.73
2023-02-27T00:22:38.240Z,9.37
2023-02-27T00:25:05.790Z,7.03
2023-02-27T00:27:32.631Z,9.80
2023-02-27T00:29:59.689Z,9.10
2023-02-27T00:32:26.176Z,7.47
2023-02-27T00:34:52.526Z,5.87
2023-02-27T00:37:18.868Z,8.70
2023-02-27T00:39:45.456Z,5.73
2023-02-27T00:42:11.773Z,5.33
2023-02-27T00:44:38.604Z,8.93
2023-02-27T00:47:04.949Z,5.30
2023-02-27T00:49:31.322Z,8.53
2023-02-27T00:51:57.735Z,8.67
2023-02-27T00:54:24.192Z,6.70
2023-02-27T00:56:50.588Z,6.50
2023-02-27T00:59:16.965Z,6.90
2023-02-27T01:01:44.447Z,7.23
2023-02-27T01:04:11.332Z,4.03
2023-02-27T01:06:37.717Z,17.03
2023-02-27T01:09:04.752Z,8.30
2023-02-27T01:11:31.435Z,7.40
2023-02-27T01:13:57.822Z,10.53
2023-02-27T01:16:24.412Z,8.30
2023-02-27T01:18:50.986Z,5.33
2023-02-27T01:21:17.345Z,6.20
2023-02-27T01:23:43.695Z,9.43
2023-02-27T01:26:10.086Z,6.67
2023-02-27T01:28:36.726Z,8.07
2023-02-27T01:31:03.086Z,4.93
2023-02-27T01:33:29.458Z,7.00
2023-02-27T01:35:55.811Z,4.53
2023-02-27T01:38:22.178Z,8.07
2023-02-27T01:40:48.579Z,4.93
2023-02-27T01:43:18.118Z,9.57
2023-02-27T01:45:49.370Z,6.10
2023-02-27T01:48:20.076Z,5.93
2023-02-27T01:50:56.001Z,6.43
2023-02-27T01:53:26.045Z,4.63
2023-02-27T01:56:00.470Z,4.30
2023-02-27T01:58:27.472Z,8.80
2023-02-27T02:00:55.181Z,8.03
2023-02-27T02:03:46.405Z,6.43
2023-02-27T02:06:13.210Z,10.73
2023-02-27T02:08:44.110Z,5.13
2023-02-27T02:11:12.415Z,6.83
2023-02-27T02:13:41.253Z,9.00
2023-02-27T02:16:26.049Z,4.10
2023-02-27T02:19:36.171Z,7.17
2023-02-27T02:22:37.410Z,5.70
2023-02-27T02:25:29.575Z,4.47
2023-02-27T02:28:20.822Z,5.13
2023-02-27T02:31:14.991Z,3.87
2023-02-27T02:34:13.313Z,5.10
2023-02-27T02:37:04.289Z,3.40
2023-02-27T02:39:55.301Z,6.40
2023-02-27T02:42:26.035Z,4.50
2023-02-27T02:44:57.710Z,5.73
2023-02-27T02:47:52.417Z,3.00
2023-02-27T02:50:18.744Z,3.30
2023-02-27T02:53:01.351Z,5.47
2023-02-27T02:55:37.759Z,6.60
2023-02-27T02:58:11.904Z,4.00
2023-02-27T03:00:46.627Z,4.60
2023-02-27T03:03:26.131Z,3.63
2023-02-27T03:05:59.777Z,5.67
2023-02-27T03:08:30.800Z,3.20
2023-02-27T03:11:01.166Z,4.13
2023-02-27T03:13:36.612Z,10.10
2023-02-27T03:16:31.832Z,8.80
2023-02-27T03:19:16.302Z,5.20
2023-02-27T03:21:55.884Z,8.67
2023-02-27T03:24:46.528Z,6.10
2023-02-27T03:27:14.184Z,3.90
2023-02-27T03:30:04.581Z,5.80
2023-02-27T03:32:42.584Z,4.13
2023-02-27T03:35:10.456Z,5.10
2023-02-27T03:38:01.190Z,7.70
2023-02-27T03:40:36.540Z,9.37
2023-02-27T03:43:30.629Z,2.53
2023-02-27T03:46:05.785Z,2.70
2023-02-27T03:48:32.383Z,6.13
2023-02-27T03:50:58.936Z,6.43
2023-02-27T03:53:34.831Z,2.90
2023-02-27T03:56:05.057Z,4.00
2023-02-27T03:58:31.445Z,7.17
2023-02-27T04:00:57.842Z,4.93
2023-02-27T04:03:24.425Z,4.77
2023-02-27T04:05:50.866Z,4.13
2023-02-27T04:08:36.258Z,7.57
2023-02-27T04:11:17.583Z,6.57
2023-02-27T04:13:52.320Z,4.90
2023-02-27T04:16:37.526Z,3.60
2023-02-27T04:19:34.710Z,3.70
2023-02-27T04:22:54.825Z,6.73
2023-02-27T04:25:52.133Z,6.30
2023-02-27T04:28:26.940Z,3.63
2023-02-27T04:31:22.594Z,7.13
2023-02-27T04:33:59.974Z,4.80
2023-02-27T04:36:44.855Z,7.50
2023-02-27T04:39:28.250Z,3.73
2023-02-27T04:41:59.736Z,7.60
2023-02-27T04:44:28.697Z,4.43
2023-02-27T04:46:58.075Z,5.43
2023-02-27T04:49:33.479Z,4.63
2023-02-27T04:52:10.327Z,3.13
2023-02-27T04:55:05.161Z,5.13
2023-02-27T04:57:38.175Z,3.20
2023-02-27T05:00:09.283Z,5.03
2023-02-27T05:02:39.675Z,3.67
2023-02-27T05:05:13.223Z,5.10
2023-02-27T05:07:45.088Z,4.40
2023-02-27T05:10:24.998Z,6.23
2023-02-27T05:13:03.391Z,3.77
2023-02-27T05:15:34.485Z,3.20
2023-02-27T05:18:08.042Z,3.37
2023-02-27T05:20:59.495Z,4.20
2023-02-27T05:23:44.948Z,18.93
2023-02-27T05:26:37.476Z,4.57
2023-02-27T05:29:28.714Z,4.20
2023-02-27T05:32:20.714Z,6.10
2023-02-27T05:34:54.841Z,3.97
2023-02-27T05:37:48.104Z,4.77
2023-02-27T05:40:19.544Z,7.43
2023-02-27T05:42:56.490Z,3.90
2023-02-27T05:45:26.867Z,4.37
2023-02-27T05:48:00.550Z,4.30
2023-02-27T05:50:30.797Z,4.63
2023-02-27T05:53:01.904Z,6.00
2023-02-27T05:55:43.539Z,7.13
2023-02-27T05:58:24.416Z,8.10
2023-02-27T06:00:58.986Z,4.53
2023-02-27T06:03:26.988Z,4.90
2023-02-27T06:05:54.779Z,6.07
2023-02-27T06:08:22.141Z,4.00
2023-02-27T06:10:50.456Z,5.00
2023-02-27T06:13:17.484Z,8.20
2023-02-27T06:15:45.345Z,5.27
2023-02-27T06:18:12.698Z,6.90
2023-02-27T06:20:39.762Z,9.73
2023-02-27T06:23:06.618Z,4.27
2023-02-27T06:25:33.484Z,7.13
2023-02-27T06:27:59.832Z,4.17
2023-02-27T06:30:26.684Z,4.67
2023-02-27T06:32:53.101Z,6.00
2023-02-27T06:35:19.543Z,9.97
2023-02-27T06:37:45.908Z,6.27
2023-02-27T06:40:13.612Z,9.73
2023-02-27T06:42:44.996Z,5.23
2023-02-27T06:45:12.648Z,6.13
2023-02-27T06:47:40.057Z,6.67
2023-02-27T06:50:11.198Z,6.67
2023-02-27T06:52:38.535Z,5.47
2023-02-27T06:55:07.040Z,6.23
2023-02-27T06:57:33.530Z,6.63
2023-02-27T06:59:59.900Z,5.63
2023-02-27T07:02:26.284Z,4.53
2023-02-27T07:04:53.079Z,7.10
2023-02-27T07:07:34.215Z,6.87
2023-02-27T07:10:03.626Z,8.00
2023-02-27T07:12:29.960Z,6.10
2023-02-27T07:14:56.319Z,11.20
2023-02-27T07:17:22.706Z,6.20
2023-02-27T07:19:49.040Z,11.47
2023-02-27T07:22:15.404Z,7.80
2023-02-27T07:24:42.048Z,10.90
2023-02-27T07:27:08.402Z,5.70
2023-02-27T07:29:35.958Z,7.47
2023-02-27T07:32:03.050Z,9.80
2023-02-27T07:34:29.440Z,12.93
2023-02-27T07:36:55.792Z,7.73
2023-02-27T07:39:22.155Z,5.77
2023-02-27T07:41:48.520Z,9.07
2023-02-27T07:44:15.308Z,6.87
2023-02-27T07:46:41.696Z,10.90
2023-02-27T07:49:08.075Z,8.63
2023-02-27T07:51:34.466Z,9.83
2023-02-27T07:54:00.895Z,9.60
2023-02-27T07:56:27.615Z,8.50
2023-02-27T07:58:54.279Z,11.67
2023-02-27T08:01:20.645Z,10.50
2023-02-27T08:03:47.055Z,6.73
2023-02-27T08:06:14.032Z,10.63
2023-02-27T08:08:40.357Z,9.97
2023-02-27T08:11:06.728Z,8.33
2023-02-27T08:13:59.969Z,6.77
2023-02-27T08:16:19.524Z,7.37
2023-02-27T08:18:45.973Z,8.00
2023-02-27T08:21:12.365Z,7.07
2023-02-27T08:23:38.696Z,7.33
2023-02-27T08:26:05.388Z,10.43
2023-02-27T08:28:31.728Z,13.90
2023-02-27T08:30:58.081Z,14.27
2023-02-27T08:33:25.030Z,11.20
2023-02-27T08:35:52.023Z,15.23
2023-02-27T08:38:18.451Z,21.30
2023-02-27T08:40:44.898Z,17.63
2023-02-27T08:43:11.229Z,7.77
2023-02-27T08:45:37.698Z,7.70
2023-02-27T08:48:04.198Z,10.53
2023-02-27T08:50:30.604Z,7.63
2023-02-27T08:52:56.927Z,8.57
2023-02-27T08:55:23.277Z,8.03
2023-02-27T08:57:49.612Z,7.30
2023-02-27T09:00:16.520Z,8.53
2023-02-27T09:02:43.005Z,7.93
2023-02-27T09:05:09.550Z,8.13
2023-02-27T09:07:36.136Z,8.40
2023-02-27T09:10:02.607Z,8.93
2023-02-27T09:12:28.974Z,11.70
2023-02-27T09:14:55.330Z,6.33
2023-02-27T09:17:21.718Z,5.30
2023-02-27T09:19:48.050Z,5.93
2023-02-27T09:22:14.408Z,5.00
2023-02-27T09:24:40.750Z,12.10
2023-02-27T09:27:07.140Z,6.80
2023-02-27T09:29:33.542Z,10.17
2023-02-27T09:32:00.100Z,5.13
2023-02-27T09:34:26.554Z,5.37
2023-02-27T09:36:52.993Z,5.03
2023-02-27T09:39:19.350Z,7.17
2023-02-27T09:41:57.894Z,7.70
2023-02-27T09:44:46.355Z,9.30
2023-02-27T09:47:19.311Z,7.20
2023-02-27T09:49:59.990Z,5.57
2023-02-27T09:52:28.805Z,5.30
2023-02-27T09:54:55.430Z,10.23
2023-02-27T09:57:37.602Z,6.23
2023-02-27T10:00:42.925Z,7.37
2023-02-27T10:03:44.897Z,4.23
2023-02-27T10:06:25.220Z,6.17
2023-02-27T10:09:16.157Z,4.90
2023-02-27T10:11:54.666Z,4.03
2023-02-27T10:14:34.785Z,5.83
2023-02-27T10:17:06.422Z,7.10
2023-02-27T10:19:37.012Z,6.57
2023-02-27T10:22:08.226Z,4.60
2023-02-27T10:24:42.914Z,12.83
2023-02-27T10:27:16.146Z,5.73
2023-02-27T10:29:42.869Z,3.47
2023-02-27T10:32:32.783Z,10.07
2023-02-27T10:35:09.575Z,4.10
2023-02-27T10:37:41.117Z,4.63
2023-02-27T10:40:12.714Z,5.20
2023-02-27T10:42:41.595Z,7.63
2023-02-27T10:45:15.124Z,5.70
2023-02-27T10:47:42.589Z,5.40
2023-02-27T10:50:20.952Z,6.97
2023-02-27T10:52:59.414Z,5.83
2023-02-27T10:55:29.975Z,4.70
2023-02-27T10:57:58.457Z,3.67
2023-02-27T11:00:49.388Z,7.50
2023-02-27T11:03:21.257Z,12.03
2023-02-27T11:06:26.019Z,4.30
2023-02-27T11:09:11.023Z,5.17
2023-02-27T11:11:38.117Z,4.67
2023-02-27T11:14:19.575Z,5.27
2023-02-27T11:16:50.493Z,5.73
2023-02-27T11:19:32.066Z,4.17
2023-02-27T11:22:07.491Z,3.73
2023-02-27T11:24:34.969Z,8.40
2023-02-27T11:27:05.288Z,4.03
2023-02-27T11:29:34.328Z,6.17
2023-02-27T11:32:04.872Z,8.20
2023-02-27T11:34:38.670Z,4.30
2023-02-27T11:37:26.369Z,4.57
2023-02-27T11:40:01.799Z,3.27
2023-02-27T11:42:34.623Z,11.33
2023-02-27T11:45:08.604Z,6.50
2023-02-27T11:47:38.734Z,8.13
2023-02-27T11:50:42.536Z,5.70
2023-02-27T11:53:28.008Z,7.03
2023-02-27T11:55:59.376Z,5.00
2023-02-27T11:58:30.681Z,5.50
2023-02-27T12:01:04.048Z,7.03
2023-02-27T12:03:46.635Z,5.40
2023-02-27T12:06:19.292Z,4.90
2023-02-27T12:08:52.886Z,5.03
2023-02-27T12:11:40.649Z,9.53
2023-02-27T12:14:40.252Z,4.83
2023-02-27T12:17:29.455Z,4.50
2023-02-27T12:20:14.784Z,4.80
2023-02-27T12:22:46.966Z,4.23
2023-02-27T12:25:33.491Z,6.00
2023-02-27T12:28:15.431Z,3.17
2023-02-27T12:30:52.589Z,4.73
2023-02-27T12:33:38.382Z,3.20
2023-02-27T12:36:08.525Z,3.10
2023-02-27T12:38:38.086Z,3.07
2023-02-27T12:41:23.332Z,3.87
2023-02-27T12:44:12.094Z,4.60
2023-02-27T12:47:04.637Z,5.83
2023-02-27T12:49:51.568Z,5.40
2023-02-27T12:52:37.006Z,3.20
2023-02-27T12:55:13.829Z,11.63
2023-02-27T12:58:03.194Z,3.77
2023-02-27T13:00:41.488Z,2.40
2023-02-27T13:03:17.480Z,1.73
2023-02-27T13:05:51.977Z,2.30
2023-02-27T13:08:38.163Z,6.90
2023-02-27T13:11:13.495Z,2.67
2023-02-27T13:13:49.060Z,4.20
2023-02-27T13:16:20.111Z,2.07
2023-02-27T13:19:14.275Z,4.20
2023-02-27T13:21:53.969Z,2.20
2023-02-27T13:24:31.157Z,2.43
2023-02-27T13:27:00.580Z,3.50
2023-02-27T13:29:46.306Z,1.60
2023-02-27T13:32:43.058Z,1.90
2023-02-27T13:35:23.425Z,1.73
2023-02-27T13:38:05.298Z,2.40
2023-02-27T13:40:36.313Z,6.10
2023-02-27T13:43:24.444Z,1.90
2023-02-27T13:46:18.412Z,4.50
2023-02-27T13:48:46.858Z,3.50
2023-02-27T13:51:34.697Z,3.03
2023-02-27T13:54:13.192Z,1.30
2023-02-27T13:56:43.314Z,2.50
2023-02-27T13:59:19.376Z,3.37
2023-02-27T14:01:54.570Z,3.40
2023-02-27T14:04:22.203Z,3.70
2023-02-27T14:06:49.247Z,4.63
2023-02-27T14:09:20.272Z,1.60
2023-02-27T14:11:59.902Z,2.97
2023-02-27T14:14:45.715Z,2.60
2023-02-27T14:17:33.856Z,6.30
2023-02-27T14:20:01.147Z,3.27
2023-02-27T14:22:28.876Z,2.10
2023-02-27T14:25:03.685Z,2.33
2023-02-27T14:27:36.558Z,2.70
2023-02-27T14:30:07.725Z,8.50
2023-02-27T14:32:37.119Z,3.20
2023-02-27T14:35:05.923Z,3.67
2023-02-27T14:37:33.023Z,3.30
2023-02-27T14:40:03.196Z,5.57
2023-02-27T14:42:48.544Z,3.27
2023-02-27T14:45:24.301Z,2.37
2023-02-27T14:47:52.569Z,1.60
2023-02-27T14:50:36.624Z,1.53
2023-02-27T14:53:05.342Z,1.57
2023-02-27T14:55:34.222Z,1.60
2023-02-27T14:58:15.507Z,2.70
2023-02-27T15:00:50.402Z,1.73
2023-02-27T15:03:26.116Z,1.80
2023-02-27T15:05:57.515Z,1.97
2023-02-27T15:08:28.521Z,2.97
2023-02-27T15:10:56.244Z,3.50
2023-02-27T15:13:33.129Z,2.07
2023-02-27T15:16:28.861Z,3.07
2023-02-27T15:18:58.966Z,1.80
2023-02-27T15:21:29.461Z,3.93
2023-02-27T15:23:58.637Z,8.13
2023-02-27T15:26:27.044Z,2.13
2023-02-27T15:28:54.070Z,2.00
2023-02-27T15:31:26.921Z,4.93
2023-02-27T15:33:55.051Z,3.80
2023-02-27T15:36:35.554Z,2.70
2023-02-27T15:39:20.307Z,2.87
2023-02-27T15:41:50.341Z,3.27
2023-02-27T15:44:19.727Z,4.43
2023-02-27T15:46:47.543Z,3.60
2023-02-27T15:49:16.890Z,3.23
2023-02-27T15:51:43.572Z,4.47
2023-02-27T15:54:10.553Z,6.40
2023-02-27T15:56:38.878Z,2.43
2023-02-27T15:59:05.651Z,3.07
2023-02-27T16:01:33.119Z,6.90
2023-02-27T16:04:02.366Z,4.97
2023-02-27T16:06:35.137Z,2.03
2023-02-27T16:09:22.008Z,2.40
2023-02-27T16:11:49.449Z,2.93
2023-02-27T16:14:44.678Z,4.50
2023-02-27T16:17:30.521Z,2.50
2023-02-27T16:20:01.326Z,4.30
2023-02-27T16:22:30.322Z,5.87
2023-02-27T16:25:10.892Z,3.20
2023-02-27T16:27:38.906Z,4.33
2023-02-27T16:30:11.352Z,3.47
2023-02-27T16:32:42.151Z,2.43
2023-02-27T16:35:20.327Z,3.60
2023-02-27T16:37:47.993Z,7.10
2023-02-27T16:40:18.444Z,4.47
2023-02-27T16:42:46.053Z,4.27
2023-02-27T16:45:21.443Z,6.90
2023-02-27T16:47:49.260Z,6.60
2023-02-27T16:50:24.318Z,5.73
2023-02-27T16:52:50.632Z,5.10
2023-02-27T16:55:17.109Z,4.20
2023-02-27T16:57:43.538Z,6.90
2023-02-27T17:00:15.220Z,3.63
2023-02-27T17:02:42.862Z,8.63
2023-02-27T17:05:09.916Z,5.27
2023-02-27T17:07:36.932Z,4.30
2023-02-27T17:10:03.964Z,11.07
2023-02-27T17:12:30.310Z,9.30
2023-02-27T17:14:56.807Z,10.30
2023-02-27T17:17:23.165Z,8.10
2023-02-27T17:19:49.628Z,9.90
2023-02-27T17:22:15.953Z,6.00
2023-02-27T17:24:42.419Z,4.60
2023-02-27T17:27:09.338Z,8.20
2023-02-27T17:29:38.456Z,9.33
2023-02-27T17:32:04.988Z,5.73
2023-02-27T17:34:31.403Z,8.17
2023-02-27T17:36:57.738Z,7.27
2023-02-27T17:39:24.159Z,4.70
2023-02-27T17:41:52.797Z,4.83
2023-02-27T17:44:19.294Z,6.20
2023-02-27T17:46:45.640Z,6.77
2023-02-27T17:49:12.062Z,4.50
2023-02-27T17:51:38.396Z,7.60
2023-02-27T17:54:05.894Z,5.80
2023-02-27T17:56:32.812Z,5.27
2023-02-27T17:58:59.931Z,5.17
2023-02-27T18:01:26.631Z,9.03
2023-02-27T18:03:54.778Z,5.07
2023-02-27T18:06:22.410Z,5.00
2023-02-27T18:08:48.967Z,6.23
2023-02-27T18:11:18.449Z,5.80
2023-02-27T18:13:45.180Z,5.70
2023-02-27T18:16:11.931Z,6.20
2023-02-27T18:18:40.589Z,5.27
2023-02-27T18:21:10.329Z,7.43
2023-02-27T18:23:37.541Z,6.83
2023-02-27T18:26:04.692Z,7.60
2023-02-27T18:28:31.077Z,8.53
2023-02-27T18:30:57.586Z,9.70
2023-02-27T18:33:24.650Z,12.87
2023-02-27T18:35:51.687Z,9.60
2023-02-27T18:38:18.108Z,12.20
2023-02-27T18:40:44.586Z,14.00
2023-02-27T18:43:11.603Z,23.10
2023-02-27T18:45:38.420Z,31.60
2023-02-27T18:48:04.967Z,26.87
2023-02-27T18:50:31.452Z,34.60
2023-02-27T18:52:59.089Z,27.20
2023-02-27T18:55:25.840Z,26.87
2023-02-27T18:57:52.221Z,25.63
2023-02-27T19:00:19.554Z,18.67
2023-02-27T19:02:45.964Z,17.03
2023-02-27T19:05:14.456Z,18.73
2023-02-27T19:07:41.034Z,15.13
2023-02-27T19:10:08.480Z,13.90
2023-02-27T19:12:34.848Z,17.77
2023-02-27T19:15:01.253Z,18.23
2023-02-27T19:17:27.985Z,18.00
2023-02-27T19:19:54.439Z,12.67
2023-02-27T19:22:21.130Z,15.80
2023-02-27T19:24:47.818Z,13.33
2023-02-27T19:27:14.149Z,13.10
2023-02-27T19:29:40.590Z,13.83
2023-02-27T19:32:08.292Z,15.60
2023-02-27T19:34:34.691Z,11.97
2023-02-27T19:37:01.052Z,13.60
2023-02-27T19:39:27.661Z,13.53
2023-02-27T19:41:53.985Z,9.60
2023-02-27T19:44:20.715Z,10.80
2023-02-27T19:46:51.292Z,13.87
2023-02-27T19:49:18.029Z,13.37
2023-02-27T19:51:44.548Z,13.03
2023-02-27T19:54:15.513Z,19.20
2023-02-27T19:56:42.420Z,17.10
2023-02-27T19:59:10.948Z,16.27
2023-02-27T20:01:38.881Z,16.07
2023-02-27T20:04:07.799Z,18.90
2023-02-27T20:06:44.648Z,12.70
2023-02-27T20:09:16.983Z,17.40
2023-02-27T20:11:44.522Z,16.40
2023-02-27T20:14:13.857Z,15.70
2023-02-27T20:16:41.019Z,15.10
2023-02-27T20:19:10.407Z,16.23
2023-02-27T20:21:36.911Z,15.53
2023-02-27T20:24:03.406Z,19.87
2023-02-27T20:26:34.867Z,18.43
2023-02-27T20:29:07.179Z,15.53
2023-02-27T20:31:35.653Z,15.17
2023-02-27T20:34:05.923Z,15.27
2023-02-27T20:36:34.608Z,18.67
2023-02-27T20:39:01.320Z,16.27
2023-02-27T20:41:29.772Z,14.83
2023-02-27T20:43:56.872Z,13.93
2023-02-27T20:46:28.597Z,15.23
2023-02-27T20:48:56.599Z,15.13
2023-02-27T20:51:24.895Z,14.93
2023-02-27T20:53:54.432Z,14.07
2023-02-27T20:56:23.194Z,17.17
2023-02-27T20:58:49.962Z,13.97
2023-02-27T21:01:17.380Z,12.00
2023-02-27T21:03:45.108Z,14.10
2023-02-27T21:06:15.311Z,11.23
2023-02-27T21:08:44.958Z,10.93
2023-02-27T21:11:20.447Z,18.80
2023-02-27T21:13:47.198Z,10.30
2023-02-27T21:16:16.243Z,13.10
2023-02-27T21:18:43.396Z,11.47
2023-02-27T21:21:18.834Z,12.17
2023-02-27T21:23:45.581Z,10.33
2023-02-27T21:26:26.562Z,12.57
2023-02-27T21:28:57.770Z,8.33
2023-02-27T21:31:26.666Z,9.60
2023-02-27T21:33:54.098Z,12.63
2023-02-27T21:36:47.736Z,8.40
2023-02-27T21:39:17.146Z,10.43
2023-02-27T21:41:44.472Z,10.53
2023-02-27T21:44:14.174Z,22.07
2023-02-27T21:46:40.964Z,19.07
2023-02-27T21:49:07.674Z,45.13
2023-02-27T21:51:40.382Z,39.03
2023-02-27T21:54:09.633Z,39.03
2023-02-27T21:56:36.150Z,16.70
2023-02-27T21:59:02.561Z,16.40
2023-02-27T22:01:30.370Z,21.63
2023-02-27T22:03:57.307Z,8.83
2023-02-27T22:06:26.164Z,12.87
2023-02-27T22:08:56.723Z,8.93
2023-02-27T22:11:24.594Z,9.30
2023-02-27T22:13:50.926Z,12.00
2023-02-27T22:16:19.672Z,6.90
2023-02-27T22:18:46.629Z,9.83
2023-02-27T22:21:18.990Z,6.90
2023-02-27T22:23:45.892Z,6.47
2023-02-27T22:26:18.041Z,7.83
2023-02-27T22:28:44.407Z,8.80
2023-02-27T22:31:18.488Z,7.50
2023-02-27T22:33:46.897Z,7.83
2023-02-27T22:36:16.080Z,5.27
2023-02-27T22:38:42.954Z,10.23
2023-02-27T22:41:12.894Z,11.87
2023-02-27T22:43:39.774Z,5.40
2023-02-27T22:46:10.479Z,6.47
2023-02-27T22:48:37.552Z,8.20
2023-02-27T22:51:07.317Z,4.23
2023-02-27T22:53:41.084Z,6.23
2023-02-27T22:56:10.850Z,12.63
2023-02-27T22:58:38.937Z,4.27
2023-02-27T23:01:09.741Z,6.53
2023-02-27T23:03:37.275Z,4.30
2023-02-27T23:06:05.129Z,7.73
2023-02-27T23:08:31.479Z,6.10
2023-02-27T23:10:58.238Z,5.10
2023-02-27T23:13:24.633Z,6.67
2023-02-27T23:15:51.120Z,7.20
2023-02-27T23:18:17.548Z,7.60
2023-02-27T23:20:43.979Z,4.90
2023-02-27T23:23:10.318Z,7.43
2023-02-27T23:25:38.010Z,3.80
2023-02-27T23:28:05.848Z,6.53
2023-02-27T23:30:33.160Z,6.40
2023-02-27T23:32:59.968Z,4.60
2023-02-27T23:35:27.536Z,4.23
2023-02-27T23:37:58.980Z,6.00
2023-02-27T23:40:27.192Z,6.30
2023-02-27T23:42:54.033Z,6.90
2023-02-27T23:45:23.457Z,4.50
2023-02-27T23:47:57.834Z,8.13
2023-02-27T23:50:27.513Z,4.23
2023-02-27T23:52:55.827Z,7.10
2023-02-27T23:55:22.633Z,6.73
2023-02-27T23:57:53.818Z,5.90
